Time;durP1;ratioP1;P1;durP2;ratioP2;P2;SDS_P1;SDS_P2;PMS_P1;PMS_P2;Temp;Humidity;BMP_temperature;BMP_pressure;BME280_temperature;BME280_humidity;BME280_pressure;Samples;Min_cycle;Max_cycle;Signal;HPM_P1;HPM_P2
2022/05/15 00:01:28;;;;;;;;;5.75;5.00;;;;;;;;5028989;28;45547;-69
2022/05/15 00:03:54;;;;;;;;;11.00;9.25;;;;;;;;5029333;28;45602;-69
2022/05/15 00:06:19;;;;;;;;;20.25;19.25;;;;;;;;5027001;28;47466;-68
2022/05/15 00:08:45;;;;;;;;;17.50;16.00;;;;;;;;5028852;28;45415;-69
2022/05/15 00:11:12;;;;;;;;;8.75;7.75;;;;;;;;5027089;28;45429;-69
2022/05/15 00:13:37;;;;;;;;;5.50;5.00;;;;;;;;5027746;28;45751;-69
2022/05/15 00:16:03;;;;;;;;;2.25;2.25;;;;;;;;5028751;28;46511;-68
2022/05/15 00:18:29;;;;;;;;;14.75;14.75;;;;;;;;5031410;28;45673;-69
2022/05/15 00:20:54;;;;;;;;;13.75;12.75;;;;;;;;5028944;28;45912;-69
2022/05/15 00:23:21;;;;;;;;;12.00;10.50;;;;;;;;5031363;28;45518;-69
2022/05/15 00:25:47;;;;;;;;;6.75;6.75;;;;;;;;5027345;28;48384;-69
2022/05/15 00:28:13;;;;;;;;;8.75;6.50;;;;;;;;5046624;28;45797;-68
2022/05/15 00:30:38;;;;;;;;;4.00;4.00;;;;;;;;5024158;28;45634;-70
2022/05/15 00:33:04;;;;;;;;;6.25;6.25;;;;;;;;5038600;28;45480;-69
2022/05/15 00:35:30;;;;;;;;;6.75;6.75;;;;;;;;5028709;28;47073;-69
2022/05/15 00:37:55;;;;;;;;;8.00;8.00;;;;;;;;5025384;28;45533;-69
2022/05/15 00:40:22;;;;;;;;;9.50;7.75;;;;;;;;5024696;28;45470;-69
2022/05/15 00:42:47;;;;;;;;;8.50;7.50;;;;;;;;5029858;28;45880;-69
2022/05/15 00:45:13;;;;;;;;;10.00;7.50;;;;;;;;5031167;28;46747;-69
2022/05/15 00:47:39;;;;;;;;;6.00;6.00;;;;;;;;5032098;28;46367;-69
2022/05/15 00:50:07;;;;;;;;;5.25;5.00;;;;;;;;5032121;28;45510;-69
2022/05/15 00:52:34;;;;;;;;;6.00;4.75;;;;;;;;5029590;28;45578;-69
2022/05/15 00:55:04;;;;;;;;;6.75;6.75;;;;;;;;5029672;28;46315;-69
2022/05/15 00:57:37;;;;;;;;;6.25;6.00;;;;;;;;5030038;28;46448;-69
2022/05/15 01:00:10;;;;;;;;;7.00;6.75;;;;;;;;5031406;28;45432;-69
2022/05/15 01:02:38;;;;;;;;;8.50;6.00;;;;;;;;5033222;28;45455;-69
2022/05/15 01:05:04;;;;;;;;;4.75;4.75;;;;;;;;5027603;28;47739;-69
2022/05/15 01:07:29;;;;;;;;;3.50;3.25;;;;;;;;5028816;28;46009;-70
2022/05/15 01:09:55;;;;;;;;;5.50;5.50;;;;;;;;5033207;28;45570;-69
2022/05/15 01:12:21;;;;;;;;;10.50;7.25;;;;;;;;5035061;28;45596;-69
2022/05/15 01:14:46;;;;;;;;;11.00;6.75;;;;;;;;5035307;28;45611;-68
2022/05/15 01:17:12;;;;;;;;;6.50;5.50;;;;;;;;5031380;28;45421;-69
2022/05/15 01:19:38;;;;;;;;;9.75;7.00;;;;;;;;5028746;28;45376;-69
2022/05/15 01:22:04;;;;;;;;;8.25;7.50;;;;;;;;5032987;28;45520;-69
2022/05/15 01:24:30;;;;;;;;;9.00;9.00;;;;;;;;5034070;28;45509;-68
2022/05/15 01:26:56;;;;;;;;;7.00;6.00;;;;;;;;5034133;28;45662;-68
2022/05/15 01:29:29;;;;;;;;;14.00;13.50;;;;;;;;5036547;28;45697;-68
2022/05/15 01:31:54;;;;;;;;;12.00;12.00;;;;;;;;5034068;28;45472;-68
2022/05/15 01:34:20;;;;;;;;;15.25;13.25;;;;;;;;5034300;28;46746;-68
2022/05/15 01:36:45;;;;;;;;;12.25;12.25;;;;;;;;5032883;28;45940;-70
2022/05/15 01:39:10;;;;;;;;;10.25;10.25;;;;;;;;5032882;28;45740;-70
2022/05/15 01:41:35;;;;;;;;;8.50;5.50;;;;;;;;5032032;28;45651;-68
2022/05/15 01:44:01;;;;;;;;;9.75;9.75;;;;;;;;5034191;28;46535;-68
2022/05/15 01:46:27;;;;;;;;;9.25;8.25;;;;;;;;5032956;28;45365;-68
2022/05/15 01:48:53;;;;;;;;;7.75;5.00;;;;;;;;5031513;28;45526;-69
2022/05/15 01:51:19;;;;;;;;;5.00;5.00;;;;;;;;5032893;28;45590;-68
2022/05/15 01:53:44;;;;;;;;;11.25;9.00;;;;;;;;5035065;28;46084;-68
2022/05/15 01:56:10;;;;;;;;;6.00;5.00;;;;;;;;5035490;28;45612;-69
2022/05/15 01:58:36;;;;;;;;;3.75;3.75;;;;;;;;5034149;28;45290;-69
2022/05/15 02:01:01;;;;;;;;;8.50;7.25;;;;;;;;5033923;28;45374;-68
2022/05/15 02:03:27;;;;;;;;;5.00;5.00;;;;;;;;5034255;28;45661;-68
2022/05/15 02:05:52;;;;;;;;;6.50;5.00;;;;;;;;5034032;28;45479;-68
2022/05/15 02:08:18;;;;;;;;;4.75;4.75;;;;;;;;5036043;28;45484;-67
2022/05/15 02:10:43;;;;;;;;;5.25;5.25;;;;;;;;5045998;28;45753;-69
2022/05/15 02:13:08;;;;;;;;;5.00;5.00;;;;;;;;5025350;28;45779;-69
2022/05/15 02:15:33;;;;;;;;;5.25;5.25;;;;;;;;5033642;28;45369;-69
2022/05/15 02:17:59;;;;;;;;;5.25;4.25;;;;;;;;5034026;28;45471;-69
2022/05/15 02:20:25;;;;;;;;;4.75;4.75;;;;;;;;5035797;28;45508;-69
2022/05/15 02:22:50;;;;;;;;;4.25;4.25;;;;;;;;5033579;28;45847;-69
2022/05/15 02:25:16;;;;;;;;;5.75;5.75;;;;;;;;5032120;28;45564;-69
2022/05/15 02:27:42;;;;;;;;;3.50;3.25;;;;;;;;5033619;28;45570;-69
2022/05/15 02:30:08;;;;;;;;;5.00;5.00;;;;;;;;5033486;28;45445;-69
2022/05/15 02:32:33;;;;;;;;;6.00;5.00;;;;;;;;5030832;28;48796;-68
2022/05/15 02:34:58;;;;;;;;;5.50;5.25;;;;;;;;5045558;28;45499;-69
2022/05/15 02:37:24;;;;;;;;;5.00;5.00;;;;;;;;5027274;28;45518;-69
2022/05/15 02:39:49;;;;;;;;;4.75;3.50;;;;;;;;5033618;28;45401;-69
2022/05/15 02:42:14;;;;;;;;;3.50;3.50;;;;;;;;5033656;28;47784;-69
2022/05/15 02:44:39;;;;;;;;;4.00;4.00;;;;;;;;5034728;28;45655;-68
2022/05/15 02:47:05;;;;;;;;;4.00;4.00;;;;;;;;5033943;28;45483;-69
2022/05/15 02:52:14;;;;;;;;;5.75;4.00;;;;;;;;5033143;28;46068;-69
2022/05/15 02:54:39;;;;;;;;;5.75;5.75;;;;;;;;5033095;28;45615;-69
2022/05/15 02:57:06;;;;;;;;;6.00;6.00;;;;;;;;5032703;28;45415;-68
2022/05/15 02:59:31;;;;;;;;;4.00;4.00;;;;;;;;5029651;28;45413;-68
2022/05/15 03:01:57;;;;;;;;;7.25;5.00;;;;;;;;5031176;28;45428;-68
2022/05/15 03:04:22;;;;;;;;;6.00;6.00;;;;;;;;5031709;28;45481;-68
2022/05/15 03:06:47;;;;;;;;;5.25;5.25;;;;;;;;5032724;28;45420;-67
2022/05/15 03:09:12;;;;;;;;;5.25;5.25;;;;;;;;5032899;28;45397;-68
2022/05/15 03:11:38;;;;;;;;;4.75;4.75;;;;;;;;5047082;28;47485;-68
2022/05/15 03:14:04;;;;;;;;;4.75;4.75;;;;;;;;5032151;28;45438;-68
2022/05/15 03:16:29;;;;;;;;;5.00;5.00;;;;;;;;5032976;28;45595;-69
2022/05/15 03:18:55;;;;;;;;;4.50;4.50;;;;;;;;5032685;28;45555;-69
2022/05/15 03:21:29;;;;;;;;;4.75;4.75;;;;;;;;5032587;28;45699;-69
2022/05/15 03:23:57;;;;;;;;;6.75;5.00;;;;;;;;5047943;28;45503;-69
2022/05/15 03:26:23;;;;;;;;;4.75;4.75;;;;;;;;5033500;28;45426;-69
2022/05/15 03:28:49;;;;;;;;;5.00;5.00;;;;;;;;5032698;28;45770;-69
2022/05/15 03:31:14;;;;;;;;;5.25;4.25;;;;;;;;5027807;28;47643;-69
2022/05/15 03:33:40;;;;;;;;;5.50;5.00;;;;;;;;5037097;28;46268;-68
2022/05/15 03:36:10;;;;;;;;;4.00;4.00;;;;;;;;5031561;28;45485;-68
2022/05/15 03:38:35;;;;;;;;;4.00;3.00;;;;;;;;5029607;28;45360;-68
2022/05/15 03:41:01;;;;;;;;;5.25;5.25;;;;;;;;5032659;28;46194;-68
2022/05/15 03:43:26;;;;;;;;;4.25;4.25;;;;;;;;5029454;28;46518;-68
2022/05/15 03:45:51;;;;;;;;;3.25;3.00;;;;;;;;5030899;28;45408;-68
2022/05/15 03:48:16;;;;;;;;;3.00;3.00;;;;;;;;5032295;28;45534;-68
2022/05/15 03:50:41;;;;;;;;;4.00;4.00;;;;;;;;5029802;28;47370;-69
2022/05/15 03:53:07;;;;;;;;;3.25;3.25;;;;;;;;5033055;28;45529;-68
2022/05/15 03:55:32;;;;;;;;;4.50;4.50;;;;;;;;5030954;28;45904;-68
2022/05/15 03:57:57;;;;;;;;;3.75;3.00;;;;;;;;5032484;28;45775;-68
2022/05/15 04:00:23;;;;;;;;;3.25;3.00;;;;;;;;5030176;28;47576;-68
2022/05/15 04:02:49;;;;;;;;;6.00;3.75;;;;;;;;5032634;28;45358;-68
2022/05/15 04:05:14;;;;;;;;;5.00;5.00;;;;;;;;5034117;28;45406;-68
2022/05/15 04:07:43;;;;;;;;;5.00;5.00;;;;;;;;5027439;28;45429;-69
2022/05/15 04:10:09;;;;;;;;;4.25;4.25;;;;;;;;5023401;28;45469;-67
2022/05/15 04:12:34;;;;;;;;;3.00;3.00;;;;;;;;5032320;28;45339;-67
2022/05/15 04:14:59;;;;;;;;;4.00;3.25;;;;;;;;5032350;28;45757;-68
2022/05/15 04:17:26;;;;;;;;;6.25;4.00;;;;;;;;5032743;28;45532;-68
2022/05/15 04:19:51;;;;;;;;;3.00;3.00;;;;;;;;5044097;28;48848;-68
2022/05/15 04:22:17;;;;;;;;;3.75;3.75;;;;;;;;5024863;28;45504;-67
2022/05/15 04:24:42;;;;;;;;;4.00;3.75;;;;;;;;5030314;28;45535;-68
2022/05/15 04:27:07;;;;;;;;;5.25;4.00;;;;;;;;5045767;28;45354;-68
2022/05/15 04:29:32;;;;;;;;;4.00;4.00;;;;;;;;5046295;28;47380;-69
2022/05/15 04:31:57;;;;;;;;;4.00;4.00;;;;;;;;5029840;28;45484;-67
2022/05/15 04:34:23;;;;;;;;;2.75;2.75;;;;;;;;5031802;28;45394;-68
2022/05/15 04:36:49;;;;;;;;;4.00;3.00;;;;;;;;5031645;28;45366;-69
2022/05/15 04:39:15;;;;;;;;;5.00;4.00;;;;;;;;5032267;28;47485;-68
2022/05/15 04:41:40;;;;;;;;;3.00;3.00;;;;;;;;5037007;28;45402;-68
2022/05/15 04:44:05;;;;;;;;;4.50;4.50;;;;;;;;5034680;28;45482;-68
2022/05/15 04:46:30;;;;;;;;;4.25;4.25;;;;;;;;5033518;28;45365;-68
2022/05/15 04:48:56;;;;;;;;;4.00;4.00;;;;;;;;5035037;28;45871;-69
2022/05/15 04:51:21;;;;;;;;;4.00;3.75;;;;;;;;5035108;28;45467;-69
2022/05/15 04:53:46;;;;;;;;;4.00;4.00;;;;;;;;5018012;28;45414;-68
2022/05/15 04:56:12;;;;;;;;;4.75;3.50;;;;;;;;5032289;28;45350;-68
2022/05/15 04:58:37;;;;;;;;;5.25;3.50;;;;;;;;5030226;28;46508;-67
2022/05/15 05:01:02;;;;;;;;;4.75;4.75;;;;;;;;5033305;28;45426;-68
2022/05/15 05:03:28;;;;;;;;;5.00;5.00;;;;;;;;5050758;28;45804;-68
2022/05/15 05:05:53;;;;;;;;;4.00;3.75;;;;;;;;5033259;28;45463;-69
2022/05/15 05:08:18;;;;;;;;;5.75;4.25;;;;;;;;5036576;28;46230;-69
2022/05/15 05:10:43;;;;;;;;;5.50;4.75;;;;;;;;5034834;28;45490;-68
2022/05/15 05:13:09;;;;;;;;;4.25;4.25;;;;;;;;5034631;28;45373;-68
2022/05/15 05:15:34;;;;;;;;;6.25;5.00;;;;;;;;5035026;28;45536;-68
2022/05/15 05:17:59;;;;;;;;;6.50;5.50;;;;;;;;5032488;28;48420;-68
2022/05/15 05:20:25;;;;;;;;;4.00;4.00;;;;;;;;5035733;28;45350;-68
2022/05/15 05:22:50;;;;;;;;;3.25;3.25;;;;;;;;5033356;28;45401;-68
2022/05/15 05:25:16;;;;;;;;;4.00;4.00;;;;;;;;5033061;28;45475;-70
2022/05/15 05:27:42;;;;;;;;;4.00;4.00;;;;;;;;5034259;28;45635;-69
2022/05/15 05:30:09;;;;;;;;;6.25;5.25;;;;;;;;5034407;28;45477;-68
2022/05/15 05:32:34;;;;;;;;;3.75;3.75;;;;;;;;5047823;28;45467;-68
2022/05/15 05:35:00;;;;;;;;;7.50;7.50;;;;;;;;5032100;28;45631;-68
2022/05/15 05:37:25;;;;;;;;;5.00;5.00;;;;;;;;5032973;28;45611;-68
2022/05/15 05:39:50;;;;;;;;;5.25;4.75;;;;;;;;5031791;28;45346;-68
2022/05/15 05:42:16;;;;;;;;;5.25;5.25;;;;;;;;5033729;28;45391;-68
2022/05/15 05:44:41;;;;;;;;;7.75;6.75;;;;;;;;5034571;28;45366;-69
2022/05/15 05:47:06;;;;;;;;;5.00;5.00;;;;;;;;5032498;28;48375;-68
2022/05/15 05:49:32;;;;;;;;;4.25;4.25;;;;;;;;5031504;28;45517;-68
2022/05/15 05:51:57;;;;;;;;;4.00;4.00;;;;;;;;5032074;28;45642;-69
2022/05/15 05:54:22;;;;;;;;;4.25;4.25;;;;;;;;5033481;28;45426;-68
2022/05/15 05:56:47;;;;;;;;;8.00;5.00;;;;;;;;5033630;28;46117;-68
2022/05/15 05:59:13;;;;;;;;;4.00;4.00;;;;;;;;5032971;28;46238;-69
2022/05/15 06:01:38;;;;;;;;;5.75;5.75;;;;;;;;5032916;28;45433;-68
2022/05/15 06:06:47;;;;;;;;;6.25;5.50;;;;;;;;5031429;28;45496;-69
2022/05/15 06:09:12;;;;;;;;;8.00;8.00;;;;;;;;5032313;28;45314;-68
2022/05/15 06:11:37;;;;;;;;;4.50;4.50;;;;;;;;5034801;28;45391;-69
2022/05/15 06:14:03;;;;;;;;;9.00;7.25;;;;;;;;5032164;28;45361;-69
2022/05/15 06:16:31;;;;;;;;;5.75;5.00;;;;;;;;5027878;28;48081;-69
2022/05/15 06:18:56;;;;;;;;;7.00;5.50;;;;;;;;5022533;28;46050;-68
2022/05/15 06:21:21;;;;;;;;;7.25;6.75;;;;;;;;5030022;28;45793;-68
2022/05/15 06:23:47;;;;;;;;;6.25;6.00;;;;;;;;5030531;28;45616;-68
2022/05/15 06:26:12;;;;;;;;;4.25;4.25;;;;;;;;5046238;28;48480;-68
2022/05/15 06:28:37;;;;;;;;;6.00;4.75;;;;;;;;5026518;28;46291;-68
2022/05/15 06:31:03;;;;;;;;;4.75;4.75;;;;;;;;4985333;28;1294003;-67
2022/05/15 06:33:28;;;;;;;;;5.25;4.25;;;;;;;;5033926;28;45496;-68
2022/05/15 06:35:53;;;;;;;;;5.00;4.00;;;;;;;;5033469;28;46030;-69
2022/05/15 06:38:18;;;;;;;;;8.50;4.50;;;;;;;;5034376;28;45448;-68
2022/05/15 06:40:44;;;;;;;;;4.75;4.50;;;;;;;;5032008;28;45612;-67
2022/05/15 06:43:09;;;;;;;;;6.75;5.00;;;;;;;;5033130;28;45401;-68
2022/05/15 06:45:35;;;;;;;;;6.25;5.00;;;;;;;;5033186;28;46001;-69
2022/05/15 06:48:00;;;;;;;;;6.25;6.25;;;;;;;;5048616;28;46078;-68
2022/05/15 06:50:26;;;;;;;;;6.75;5.50;;;;;;;;5034689;28;45481;-69
2022/05/15 06:52:51;;;;;;;;;5.75;4.75;;;;;;;;5032094;28;45850;-69
2022/05/15 06:55:18;;;;;;;;;7.25;7.25;;;;;;;;5031267;28;46779;-69
2022/05/15 06:57:43;;;;;;;;;5.50;5.50;;;;;;;;5031884;28;45469;-69
2022/05/15 07:00:14;;;;;;;;;4.25;4.25;;;;;;;;5032021;28;45426;-69
2022/05/15 07:02:43;;;;;;;;;7.50;7.50;;;;;;;;5033649;28;45275;-69
2022/05/15 07:05:09;;;;;;;;;5.25;5.25;;;;;;;;5030643;28;47816;-69
2022/05/15 07:07:34;;;;;;;;;5.75;5.75;;;;;;;;5031329;28;45746;-70
2022/05/15 07:09:59;;;;;;;;;4.50;4.50;;;;;;;;5031986;28;45411;-68
2022/05/15 07:12:25;;;;;;;;;5.75;5.75;;;;;;;;5033129;28;45469;-69
2022/05/15 07:14:50;;;;;;;;;7.25;5.50;;;;;;;;5032260;28;48134;-69
2022/05/15 07:17:15;;;;;;;;;6.75;6.75;;;;;;;;5047040;28;45482;-69
2022/05/15 07:19:40;;;;;;;;;7.75;7.00;;;;;;;;5028964;28;45646;-69
2022/05/15 07:22:06;;;;;;;;;5.50;5.00;;;;;;;;5028277;28;45504;-68
2022/05/15 07:24:31;;;;;;;;;5.50;5.50;;;;;;;;5019072;28;46717;-68
2022/05/15 07:26:56;;;;;;;;;5.00;5.00;;;;;;;;5047500;28;45382;-68
2022/05/15 07:29:24;;;;;;;;;5.75;5.75;;;;;;;;5045614;28;45382;-68
2022/05/15 07:31:51;;;;;;;;;7.25;7.25;;;;;;;;5028183;28;45673;-68
2022/05/15 07:34:16;;;;;;;;;5.00;5.00;;;;;;;;5030779;28;45449;-68
2022/05/15 07:36:42;;;;;;;;;5.50;5.50;;;;;;;;5030930;28;45469;-69
2022/05/15 07:39:07;;;;;;;;;5.75;5.25;;;;;;;;5032660;28;45612;-68
2022/05/15 07:41:32;;;;;;;;;6.75;6.00;;;;;;;;5046902;28;45363;-68
2022/05/15 07:43:57;;;;;;;;;10.00;7.00;;;;;;;;5030275;28;45398;-68
2022/05/15 07:46:23;;;;;;;;;5.00;5.00;;;;;;;;5031021;28;45748;-68
2022/05/15 07:48:48;;;;;;;;;6.00;6.00;;;;;;;;5047751;28;45331;-68
2022/05/15 07:51:13;;;;;;;;;4.50;4.50;;;;;;;;5031350;28;45352;-68
2022/05/15 07:53:39;;;;;;;;;4.75;4.75;;;;;;;;5031705;28;47804;-68
2022/05/15 07:56:09;;;;;;;;;2.00;2.00;;;;;;;;5031287;28;45476;-69
2022/05/15 07:58:34;;;;;;;;;5.25;5.00;;;;;;;;5028059;28;45314;-67
2022/05/15 08:01:03;;;;;;;;;3.25;3.25;;;;;;;;5022231;28;45837;-68
2022/05/15 08:03:28;;;;;;;;;5.25;5.00;;;;;;;;5030721;28;47743;-69
2022/05/15 08:08:37;;;;;;;;;5.00;5.00;;;;;;;;5030330;28;45509;-69
2022/05/15 08:11:02;;;;;;;;;5.25;4.75;;;;;;;;5026056;28;45645;-68
2022/05/15 08:13:29;;;;;;;;;4.75;4.75;;;;;;;;5024495;28;47206;-69
2022/05/15 08:15:54;;;;;;;;;5.25;5.25;;;;;;;;5028957;28;46282;-70
2022/05/15 08:23:53;;;;;;;;;4.00;4.00;;;;;;;;5030257;28;45748;-68
2022/05/15 08:26:19;;;;;;;;;2.75;2.00;;;;;;;;5032747;28;45531;-68
2022/05/15 08:28:44;;;;;;;;;6.75;5.00;;;;;;;;5030379;28;45453;-69
2022/05/15 08:31:10;;;;;;;;;4.00;2.00;;;;;;;;5031331;28;45436;-69
2022/05/15 08:33:36;;;;;;;;;3.00;3.00;;;;;;;;5030688;28;47510;-70
2022/05/15 08:36:02;;;;;;;;;4.00;3.00;;;;;;;;5031800;28;45420;-70
2022/05/15 08:38:28;;;;;;;;;3.00;3.00;;;;;;;;5032562;28;45472;-69
2022/05/15 08:41:12;;;;;;;;;3.50;3.00;;;;;;;;5044101;28;45462;-70
2022/05/15 08:44:06;;;;;;;;;4.25;3.25;;;;;;;;5051092;28;47720;-70
2022/05/15 08:46:52;;;;;;;;;3.50;3.50;;;;;;;;5028010;28;46042;-71
2022/05/15 08:49:35;;;;;;;;;3.75;2.25;;;;;;;;4989772;28;45573;-69
2022/05/15 08:52:06;;;;;;;;;3.00;3.00;;;;;;;;4973488;28;45346;-68
2022/05/15 08:54:36;;;;;;;;;5.25;4.00;;;;;;;;4972166;28;49004;-69
2022/05/15 08:57:01;;;;;;;;;4.25;3.00;;;;;;;;4972532;28;45929;-69
2022/05/15 08:59:30;;;;;;;;;2.75;2.75;;;;;;;;4991903;28;45584;-69
2022/05/15 09:01:57;;;;;;;;;2.50;2.50;;;;;;;;4973609;28;45623;-69
2022/05/15 09:04:22;;;;;;;;;2.00;2.00;;;;;;;;5006132;28;47666;-69
2022/05/15 09:06:53;;;;;;;;;3.00;3.00;;;;;;;;4989606;28;45407;-68
2022/05/15 09:09:24;;;;;;;;;3.25;3.00;;;;;;;;4990037;28;45468;-69
2022/05/15 09:12:01;;;;;;;;;2.00;2.00;;;;;;;;4990361;28;45586;-68
2022/05/15 09:14:26;;;;;;;;;3.75;3.75;;;;;;;;4990324;28;45767;-68
2022/05/15 09:16:56;;;;;;;;;3.50;3.50;;;;;;;;4973076;28;45608;-69
2022/05/15 09:19:21;;;;;;;;;4.00;4.00;;;;;;;;4989845;28;45553;-68
2022/05/15 09:21:46;;;;;;;;;4.25;3.50;;;;;;;;4989618;28;45488;-69
2022/05/15 09:24:28;;;;;;;;;2.00;2.00;;;;;;;;4990390;28;45537;-69
2022/05/15 09:26:53;;;;;;;;;2.50;2.00;;;;;;;;5010617;28;45612;-68
2022/05/15 09:29:21;;;;;;;;;4.00;2.00;;;;;;;;5037008;28;45551;-67
2022/05/15 09:31:46;;;;;;;;;2.00;2.00;;;;;;;;5028754;28;45913;-67
2022/05/15 09:34:25;;;;;;;;;2.75;2.25;;;;;;;;5027041;28;47047;-69
2022/05/15 09:36:50;;;;;;;;;3.00;1.00;;;;;;;;5034447;28;45411;-69
2022/05/15 09:39:35;;;;;;;;;2.00;2.00;;;;;;;;5033213;28;45380;-68
2022/05/15 09:44:45;;;;;;;;;2.00;2.00;;;;;;;;5032433;28;45853;-69
2022/05/15 09:47:11;;;;;;;;;1.25;1.25;;;;;;;;5032911;28;46252;-69
2022/05/15 09:49:36;;;;;;;;;1.50;1.50;;;;;;;;5050260;28;45665;-69
2022/05/15 09:52:09;;;;;;;;;1.75;1.75;;;;;;;;5032570;28;45402;-68
2022/05/15 09:54:34;;;;;;;;;2.00;2.00;;;;;;;;5034062;28;46653;-68
2022/05/15 09:57:14;;;;;;;;;3.25;3.25;;;;;;;;5034127;28;45365;-68
2022/05/15 09:59:40;;;;;;;;;2.00;2.00;;;;;;;;5036164;28;45649;-69
2022/05/15 10:02:16;;;;;;;;;4.75;2.00;;;;;;;;5033316;28;45456;-69
2022/05/15 10:04:41;;;;;;;;;3.25;2.75;;;;;;;;5033744;28;45454;-68
2022/05/15 10:07:07;;;;;;;;;1.00;1.00;;;;;;;;5032263;28;45690;-67
2022/05/15 10:09:35;;;;;;;;;3.00;3.00;;;;;;;;5033808;28;45413;-68
2022/05/15 10:12:21;;;;;;;;;4.00;4.00;;;;;;;;5032607;28;45700;-68
2022/05/15 10:14:50;;;;;;;;;4.00;2.50;;;;;;;;5030352;28;49086;-68
2022/05/15 10:17:15;;;;;;;;;4.50;2.75;;;;;;;;5031937;28;46130;-68
2022/05/15 10:19:49;;;;;;;;;2.00;2.00;;;;;;;;5032471;28;45346;-68
2022/05/15 10:22:27;;;;;;;;;3.00;3.00;;;;;;;;5033890;28;45554;-67
2022/05/15 10:24:53;;;;;;;;;4.50;3.00;;;;;;;;5032299;28;48526;-68
2022/05/15 10:27:44;;;;;;;;;4.25;3.75;;;;;;;;5033444;28;45530;-68
2022/05/15 10:30:19;;;;;;;;;1.00;1.00;;;;;;;;5008363;28;45434;-67
2022/05/15 10:32:55;;;;;;;;;3.00;2.75;;;;;;;;4992942;28;45523;-69
2022/05/15 10:35:30;;;;;;;;;1.25;1.25;;;;;;;;4991135;28;47016;-67
2022/05/15 10:38:07;;;;;;;;;2.00;2.00;;;;;;;;4990928;28;45471;-68
2022/05/15 10:40:51;;;;;;;;;3.25;3.25;;;;;;;;4991703;28;45487;-67
2022/05/15 10:43:41;;;;;;;;;3.00;1.00;;;;;;;;4991548;28;45497;-67
2022/05/15 10:46:12;;;;;;;;;2.00;2.00;;;;;;;;4975104;28;46334;-68
2022/05/15 10:48:39;;;;;;;;;2.25;2.25;;;;;;;;4989984;28;45505;-66
2022/05/15 10:51:08;;;;;;;;;4.00;4.00;;;;;;;;4990824;28;45511;-67
2022/05/15 10:59:31;;;;;;;;;5.75;3.50;;;;;;;;4992289;28;45651;-67
2022/05/15 11:01:56;;;;;;;;;4.50;4.50;;;;;;;;4982421;28;45368;-68
2022/05/15 11:04:42;;;;;;;;;4.00;4.00;;;;;;;;4991391;28;45622;-68
2022/05/15 11:07:16;;;;;;;;;4.50;4.00;;;;;;;;5005578;28;47784;-67
2022/05/15 11:09:59;;;;;;;;;6.75;5.50;;;;;;;;5032369;28;45540;-69
2022/05/15 11:12:25;;;;;;;;;54.75;45.25;;;;;;;;5031528;28;45508;-69
2022/05/15 11:15:02;;;;;;;;;3.50;3.50;;;;;;;;5030306;28;45480;-68
2022/05/15 11:17:30;;;;;;;;;5.75;5.75;;;;;;;;5046646;28;48736;-68
2022/05/15 11:19:57;;;;;;;;;3.50;2.00;;;;;;;;5030075;28;45508;-69
2022/05/15 11:22:26;;;;;;;;;7.00;5.75;;;;;;;;5031185;28;45456;-69
2022/05/15 11:24:54;;;;;;;;;3.00;3.00;;;;;;;;5030677;28;45442;-69
2022/05/15 11:27:34;;;;;;;;;20.75;20.75;;;;;;;;5029549;28;47361;-67
2022/05/15 11:30:03;;;;;;;;;14.00;14.00;;;;;;;;5032343;28;45358;-68
2022/05/15 11:32:49;;;;;;;;;6.75;6.00;;;;;;;;5033762;28;45350;-67
2022/05/15 11:35:17;;;;;;;;;6.25;5.00;;;;;;;;5026681;28;45523;-70
2022/05/15 11:37:42;;;;;;;;;5.25;5.25;;;;;;;;5032255;28;45354;-68
2022/05/15 11:40:31;;;;;;;;;6.75;5.75;;;;;;;;5027458;28;45441;-69
2022/05/15 11:42:57;;;;;;;;;14.50;14.50;;;;;;;;5013395;28;45571;-68
2022/05/15 11:45:32;;;;;;;;;6.75;5.75;;;;;;;;5032406;28;45445;-69
2022/05/15 11:47:59;;;;;;;;;5.25;5.25;;;;;;;;5031683;28;46645;-68
2022/05/15 11:50:29;;;;;;;;;5.25;5.25;;;;;;;;5032728;28;45771;-67
2022/05/15 11:52:55;;;;;;;;;2.50;2.50;;;;;;;;5030665;28;45392;-67
2022/05/15 11:55:49;;;;;;;;;3.00;3.00;;;;;;;;5032275;28;45619;-67
2022/05/15 11:58:17;;;;;;;;;2.00;2.00;;;;;;;;5022701;28;45492;-69
2022/05/15 12:00:42;;;;;;;;;4.00;4.00;;;;;;;;5031845;28;45427;-67
2022/05/15 12:03:26;;;;;;;;;4.00;4.00;;;;;;;;5031045;28;45376;-66
2022/05/15 12:06:01;;;;;;;;;3.00;3.00;;;;;;;;5041236;28;45574;-72
2022/05/15 12:08:29;;;;;;;;;2.75;2.75;;;;;;;;5031594;28;45875;-74
2022/05/15 12:10:56;;;;;;;;;3.00;3.00;;;;;;;;5020630;28;45398;-72
2022/05/15 12:13:37;;;;;;;;;4.00;4.00;;;;;;;;5043867;28;45587;-73
2022/05/15 12:16:41;;;;;;;;;3.00;3.00;;;;;;;;5040905;28;46807;-70
2022/05/15 12:19:15;;;;;;;;;3.00;3.00;;;;;;;;4961922;28;47920;-70
2022/05/15 12:21:46;;;;;;;;;6.00;6.00;;;;;;;;4969604;28;45548;-70
2022/05/15 12:24:27;;;;;;;;;4.00;4.00;;;;;;;;4953776;28;45404;-69
2022/05/15 12:26:52;;;;;;;;;2.00;2.00;;;;;;;;4955519;28;45586;-70
2022/05/15 12:29:24;;;;;;;;;1.25;1.25;;;;;;;;4949369;28;48392;-68
2022/05/15 12:31:50;;;;;;;;;4.75;4.75;;;;;;;;4953129;28;45825;-69
2022/05/15 12:34:32;;;;;;;;;2.50;2.50;;;;;;;;4965069;28;45629;-66
2022/05/15 12:36:59;;;;;;;;;3.00;3.00;;;;;;;;4969347;28;45697;-68
2022/05/15 12:39:27;;;;;;;;;2.00;2.00;;;;;;;;4967288;28;46618;-67
2022/05/15 12:41:52;;;;;;;;;3.50;2.00;;;;;;;;4960488;28;45702;-69
2022/05/15 12:44:34;;;;;;;;;3.25;3.25;;;;;;;;4969076;28;45522;-68
2022/05/15 12:47:01;;;;;;;;;2.00;2.00;;;;;;;;4955411;28;45416;-67
2022/05/15 12:49:28;;;;;;;;;1.75;1.75;;;;;;;;4989334;28;46644;-68
2022/05/15 12:52:07;;;;;;;;;3.00;3.00;;;;;;;;5024929;28;46620;-69
2022/05/15 12:54:33;;;;;;;;;3.25;3.25;;;;;;;;5025118;28;45854;-69
2022/05/15 12:56:59;;;;;;;;;4.50;2.00;;;;;;;;5013386;28;45944;-70
2022/05/15 12:59:25;;;;;;;;;3.00;2.50;;;;;;;;5029101;28;47543;-71
2022/05/15 13:01:51;;;;;;;;;2.00;2.00;;;;;;;;5026650;28;45315;-69
2022/05/15 13:04:23;;;;;;;;;3.00;3.00;;;;;;;;5026240;28;45360;-70
2022/05/15 13:06:52;;;;;;;;;2.25;1.00;;;;;;;;5026419;28;45882;-69
2022/05/15 13:09:19;;;;;;;;;2.00;2.00;;;;;;;;5029925;28;45858;-69
2022/05/15 13:11:46;;;;;;;;;4.25;3.25;;;;;;;;5030147;28;45357;-69
2022/05/15 13:14:37;;;;;;;;;2.50;2.50;;;;;;;;5028009;28;45567;-68
2022/05/15 13:17:04;;;;;;;;;2.00;2.00;;;;;;;;5016826;28;45310;-69
2022/05/15 13:19:39;;;;;;;;;2.75;2.75;;;;;;;;5024211;28;46002;-69
2022/05/15 13:22:04;;;;;;;;;3.00;2.00;;;;;;;;5020637;28;45560;-70
2022/05/15 13:24:31;;;;;;;;;2.00;2.00;;;;;;;;5031234;28;46103;-70
2022/05/15 13:26:58;;;;;;;;;2.00;2.00;;;;;;;;5026142;28;45496;-70
2022/05/15 13:29:25;;;;;;;;;1.75;1.75;;;;;;;;5022457;28;46535;-70
2022/05/15 13:31:52;;;;;;;;;1.25;1.00;;;;;;;;5028371;28;45686;-70
2022/05/15 13:34:26;;;;;;;;;3.00;3.00;;;;;;;;5014584;28;45568;-70
2022/05/15 13:36:53;;;;;;;;;1.00;1.00;;;;;;;;5018229;28;45624;-70
2022/05/15 13:44:49;;;;;;;;;2.25;1.50;;;;;;;;5020700;28;45693;-71
2022/05/15 13:47:14;;;;;;;;;2.00;2.00;;;;;;;;5040898;28;45685;-71
2022/05/15 13:49:42;;;;;;;;;1.75;1.75;;;;;;;;5032303;28;45768;-72
2022/05/15 13:52:26;;;;;;;;;0.00;0.00;;;;;;;;5046267;28;45775;-71
2022/05/15 13:54:52;;;;;;;;;2.00;2.00;;;;;;;;5033092;28;45908;-73
2022/05/15 13:57:17;;;;;;;;;1.00;1.00;;;;;;;;5023271;28;45433;-75
2022/05/15 14:00:00;;;;;;;;;1.00;1.00;;;;;;;;5018815;28;45596;-72
2022/05/15 14:02:27;;;;;;;;;1.25;1.25;;;;;;;;5016214;28;45473;-73
2022/05/15 14:04:59;;;;;;;;;1.25;1.25;;;;;;;;5016453;28;45369;-73
2022/05/15 14:07:31;;;;;;;;;1.25;1.25;;;;;;;;5015335;28;45500;-72
2022/05/15 14:09:58;;;;;;;;;3.00;3.00;;;;;;;;5028441;28;46174;-71
2022/05/15 14:12:42;;;;;;;;;1.75;1.00;;;;;;;;5027367;28;45658;-72
2022/05/15 14:15:07;;;;;;;;;2.00;2.00;;;;;;;;5026261;28;46043;-71
2022/05/15 14:17:51;;;;;;;;;2.75;1.75;;;;;;;;5025111;28;45483;-72
2022/05/15 14:20:33;;;;;;;;;2.25;2.25;;;;;;;;5026413;28;46373;-73
2022/05/15 14:22:59;;;;;;;;;4.00;3.00;;;;;;;;5027852;28;45934;-71
2022/05/15 14:25:24;;;;;;;;;2.00;2.00;;;;;;;;5063121;28;46023;-72
2022/05/15 14:27:49;;;;;;;;;1.75;1.75;;;;;;;;5026177;28;45523;-72
2022/05/15 14:30:15;;;;;;;;;2.00;2.00;;;;;;;;5019323;28;48422;-73
2022/05/15 14:32:40;;;;;;;;;3.75;3.75;;;;;;;;5017560;28;45403;-72
2022/05/15 14:35:08;;;;;;;;;2.75;2.75;;;;;;;;5028074;28;45618;-71
2022/05/15 14:37:33;;;;;;;;;2.00;2.00;;;;;;;;5029271;28;45746;-70
2022/05/15 14:39:58;;;;;;;;;3.75;3.75;;;;;;;;5028216;28;45484;-69
2022/05/15 14:42:24;;;;;;;;;2.00;2.00;;;;;;;;5027525;28;47788;-72
2022/05/15 14:44:49;;;;;;;;;3.00;3.00;;;;;;;;5016245;28;45570;-72
2022/05/15 14:47:19;;;;;;;;;3.00;3.00;;;;;;;;5020277;28;45445;-70
2022/05/15 14:49:51;;;;;;;;;3.00;3.00;;;;;;;;5042383;28;47470;-69
2022/05/15 14:52:18;;;;;;;;;3.00;2.25;;;;;;;;5028729;28;45897;-69
2022/05/15 14:54:43;;;;;;;;;4.75;4.25;;;;;;;;5019319;28;45595;-70
2022/05/15 14:57:09;;;;;;;;;4.00;4.00;;;;;;;;5014980;28;45624;-71
2022/05/15 14:59:36;;;;;;;;;2.25;2.25;;;;;;;;5013415;28;45872;-69
2022/05/15 15:02:02;;;;;;;;;3.50;3.00;;;;;;;;5024919;28;45511;-70
2022/05/15 15:04:27;;;;;;;;;3.00;1.75;;;;;;;;5021392;28;45496;-70
2022/05/15 15:06:53;;;;;;;;;2.25;2.25;;;;;;;;5024619;28;45772;-66
2022/05/15 15:09:19;;;;;;;;;3.00;3.00;;;;;;;;5027915;28;46268;-71
2022/05/15 15:11:52;;;;;;;;;3.25;3.25;;;;;;;;5029164;28;45466;-69
2022/05/15 15:14:18;;;;;;;;;2.00;2.00;;;;;;;;5019701;28;45471;-70